sensor_id;sensor_type;location;lat;lon;timestamp;P1;durP1;ratioP1;P2;durP2;ratioP2
45206;SDS011;30950;53.086;21.576;2022-09-09T00:02:20;5.05;;;2.20;;
45206;SDS011;30950;53.086;21.576;2022-09-09T00:07:49;8.70;;;2.80;;
45206;SDS011;30950;53.086;21.576;2022-09-09T00:13:10;9.55;;;3.50;;
45206;SDS011;30950;53.086;21.576;2022-09-09T00:18:51;10.87;;;2.20;;
45206;SDS011;30950;53.086;21.576;2022-09-09T00:21:22;5.15;;;2.20;;
45206;SDS011;30950;53.086;21.576;2022-09-09T00:23:58;3.65;;;1.92;;
45206;SDS011;30950;53.086;21.576;2022-09-09T00:29:20;3.30;;;2.00;;
45206;SDS011;30950;53.086;21.576;2022-09-09T00:32:16;4.57;;;2.17;;
45206;SDS011;30950;53.086;21.576;2022-09-09T00:34:49;4.43;;;2.25;;
45206;SDS011;30950;53.086;21.576;2022-09-09T00:37:21;4.03;;;2.13;;
45206;SDS011;30950;53.086;21.576;2022-09-09T00:39:53;4.88;;;2.15;;
45206;SDS011;30950;53.086;21.576;2022-09-09T00:42:33;6.03;;;2.10;;
45206;SDS011;30950;53.086;21.576;2022-09-09T00:45:12;7.05;;;3.13;;
45206;SDS011;30950;53.086;21.576;2022-09-09T00:48:10;3.92;;;2.33;;
45206;SDS011;30950;53.086;21.576;2022-09-09T00:56:13;4.60;;;2.28;;
45206;SDS011;30950;53.086;21.576;2022-09-09T01:01:22;2.55;;;1.90;;
45206;SDS011;30950;53.086;21.576;2022-09-09T01:03:54;7.25;;;2.30;;
45206;SDS011;30950;53.086;21.576;2022-09-09T01:17:16;4.10;;;1.80;;
45206;SDS011;30950;53.086;21.576;2022-09-09T01:28:08;8.30;;;2.30;;
45206;SDS011;30950;53.086;21.576;2022-09-09T01:30:42;8.05;;;2.75;;
45206;SDS011;30950;53.086;21.576;2022-09-09T01:33:15;3.92;;;1.98;;
45206;SDS011;30950;53.086;21.576;2022-09-09T01:38:16;4.40;;;1.70;;
45206;SDS011;30950;53.086;21.576;2022-09-09T01:40:46;3.95;;;2.10;;
45206;SDS011;30950;53.086;21.576;2022-09-09T01:43:14;4.65;;;2.30;;
45206;SDS011;30950;53.086;21.576;2022-09-09T01:45:41;2.47;;;1.80;;
45206;SDS011;30950;53.086;21.576;2022-09-09T01:48:10;4.93;;;2.67;;
45206;SDS011;30950;53.086;21.576;2022-09-09T01:50:42;4.15;;;2.20;;
45206;SDS011;30950;53.086;21.576;2022-09-09T01:53:09;4.57;;;2.00;;
45206;SDS011;30950;53.086;21.576;2022-09-09T01:55:40;4.38;;;2.10;;
45206;SDS011;30950;53.086;21.576;2022-09-09T02:00:52;5.82;;;1.90;;
45206;SDS011;30950;53.086;21.576;2022-09-09T02:03:51;4.32;;;1.90;;
45206;SDS011;30950;53.086;21.576;2022-09-09T02:06:25;4.50;;;1.95;;
45206;SDS011;30950;53.086;21.576;2022-09-09T02:09:17;5.00;;;2.30;;
45206;SDS011;30950;53.086;21.576;2022-09-09T02:11:48;5.43;;;2.17;;
45206;SDS011;30950;53.086;21.576;2022-09-09T02:14:30;5.75;;;2.25;;
45206;SDS011;30950;53.086;21.576;2022-09-09T02:17:06;3.50;;;2.08;;
45206;SDS011;30950;53.086;21.576;2022-09-09T02:20:10;8.93;;;2.20;;
45206;SDS011;30950;53.086;21.576;2022-09-09T02:22:46;4.93;;;2.28;;
45206;SDS011;30950;53.086;21.576;2022-09-09T02:25:19;5.20;;;2.17;;
45206;SDS011;30950;53.086;21.576;2022-09-09T02:27:53;6.57;;;2.28;;
45206;SDS011;30950;53.086;21.576;2022-09-09T02:30:21;4.07;;;2.17;;
45206;SDS011;30950;53.086;21.576;2022-09-09T02:32:54;4.88;;;2.13;;
45206;SDS011;30950;53.086;21.576;2022-09-09T02:35:41;8.07;;;2.38;;
45206;SDS011;30950;53.086;21.576;2022-09-09T02:38:14;5.80;;;1.98;;
45206;SDS011;30950;53.086;21.576;2022-09-09T02:40:55;4.82;;;2.20;;
45206;SDS011;30950;53.086;21.576;2022-09-09T02:43:23;5.70;;;2.60;;
45206;SDS011;30950;53.086;21.576;2022-09-09T02:45:54;8.10;;;3.03;;
45206;SDS011;30950;53.086;21.576;2022-09-09T02:56:48;4.40;;;2.08;;
45206;SDS011;30950;53.086;21.576;2022-09-09T02:59:26;3.67;;;2.28;;
45206;SDS011;30950;53.086;21.576;2022-09-09T03:01:54;5.32;;;2.25;;
45206;SDS011;30950;53.086;21.576;2022-09-09T03:04:22;5.03;;;2.38;;
45206;SDS011;30950;53.086;21.576;2022-09-09T03:06:51;5.43;;;2.50;;
45206;SDS011;30950;53.086;21.576;2022-09-09T03:09:20;9.27;;;2.97;;
45206;SDS011;30950;53.086;21.576;2022-09-09T03:11:48;3.47;;;2.60;;
45206;SDS011;30950;53.086;21.576;2022-09-09T03:14:18;5.10;;;3.10;;
45206;SDS011;30950;53.086;21.576;2022-09-09T03:16:49;5.30;;;2.55;;
45206;SDS011;30950;53.086;21.576;2022-09-09T03:19:17;5.45;;;3.03;;
45206;SDS011;30950;53.086;21.576;2022-09-09T03:21:45;6.40;;;3.33;;
45206;SDS011;30950;53.086;21.576;2022-09-09T03:24:13;6.35;;;3.00;;
45206;SDS011;30950;53.086;21.576;2022-09-09T03:26:41;8.07;;;2.67;;
45206;SDS011;30950;53.086;21.576;2022-09-09T03:29:14;5.20;;;2.40;;
45206;SDS011;30950;53.086;21.576;2022-09-09T03:31:42;5.18;;;2.40;;
45206;SDS011;30950;53.086;21.576;2022-09-09T03:34:11;6.10;;;2.88;;
45206;SDS011;30950;53.086;21.576;2022-09-09T03:36:40;4.45;;;2.90;;
45206;SDS011;30950;53.086;21.576;2022-09-09T03:39:10;7.72;;;3.53;;
45206;SDS011;30950;53.086;21.576;2022-09-09T03:41:41;7.15;;;3.92;;
45206;SDS011;30950;53.086;21.576;2022-09-09T03:44:08;6.60;;;3.22;;
45206;SDS011;30950;53.086;21.576;2022-09-09T03:46:39;7.72;;;4.65;;
45206;SDS011;30950;53.086;21.576;2022-09-09T03:49:06;6.35;;;3.35;;
45206;SDS011;30950;53.086;21.576;2022-09-09T03:51:34;6.10;;;2.83;;
45206;SDS011;30950;53.086;21.576;2022-09-09T03:54:04;10.18;;;3.00;;
45206;SDS011;30950;53.086;21.576;2022-09-09T03:56:35;5.85;;;3.17;;
45206;SDS011;30950;53.086;21.576;2022-09-09T03:59:03;6.30;;;3.50;;
45206;SDS011;30950;53.086;21.576;2022-09-09T04:01:30;9.40;;;3.83;;
45206;SDS011;30950;53.086;21.576;2022-09-09T04:03:58;5.55;;;3.25;;
45206;SDS011;30950;53.086;21.576;2022-09-09T04:06:25;6.57;;;4.25;;
45206;SDS011;30950;53.086;21.576;2022-09-09T04:08:53;6.45;;;3.47;;
45206;SDS011;30950;53.086;21.576;2022-09-09T04:11:23;6.57;;;3.60;;
45206;SDS011;30950;53.086;21.576;2022-09-09T04:13:52;10.00;;;4.13;;
45206;SDS011;30950;53.086;21.576;2022-09-09T04:16:20;8.35;;;4.03;;
45206;SDS011;30950;53.086;21.576;2022-09-09T04:18:47;8.38;;;4.13;;
45206;SDS011;30950;53.086;21.576;2022-09-09T04:21:16;9.10;;;3.92;;
45206;SDS011;30950;53.086;21.576;2022-09-09T04:23:44;7.57;;;4.28;;
45206;SDS011;30950;53.086;21.576;2022-09-09T04:26:12;8.38;;;4.75;;
45206;SDS011;30950;53.086;21.576;2022-09-09T04:28:39;12.73;;;5.95;;
45206;SDS011;30950;53.086;21.576;2022-09-09T04:31:16;11.85;;;6.60;;
45206;SDS011;30950;53.086;21.576;2022-09-09T04:33:52;12.50;;;6.95;;
45206;SDS011;30950;53.086;21.576;2022-09-09T04:36:20;13.93;;;7.15;;
45206;SDS011;30950;53.086;21.576;2022-09-09T04:38:51;12.85;;;6.60;;
45206;SDS011;30950;53.086;21.576;2022-09-09T04:41:19;10.38;;;6.68;;
45206;SDS011;30950;53.086;21.576;2022-09-09T04:43:49;14.68;;;7.70;;
45206;SDS011;30950;53.086;21.576;2022-09-09T04:46:21;11.52;;;6.75;;
45206;SDS011;30950;53.086;21.576;2022-09-09T04:48:50;14.07;;;7.05;;
45206;SDS011;30950;53.086;21.576;2022-09-09T04:51:19;11.07;;;7.18;;
45206;SDS011;30950;53.086;21.576;2022-09-09T04:53:48;11.55;;;6.85;;
45206;SDS011;30950;53.086;21.576;2022-09-09T04:56:18;11.52;;;7.15;;
45206;SDS011;30950;53.086;21.576;2022-09-09T04:58:50;13.00;;;7.38;;
45206;SDS011;30950;53.086;21.576;2022-09-09T05:01:21;11.65;;;7.07;;
45206;SDS011;30950;53.086;21.576;2022-09-09T05:03:52;10.23;;;6.57;;
45206;SDS011;30950;53.086;21.576;2022-09-09T05:06:21;13.02;;;7.93;;
45206;SDS011;30950;53.086;21.576;2022-09-09T05:08:54;12.02;;;7.15;;
45206;SDS011;30950;53.086;21.576;2022-09-09T05:11:28;11.65;;;7.32;;
45206;SDS011;30950;53.086;21.576;2022-09-09T05:14:20;15.02;;;8.00;;
45206;SDS011;30950;53.086;21.576;2022-09-09T05:16:47;13.82;;;7.28;;
45206;SDS011;30950;53.086;21.576;2022-09-09T05:19:16;11.75;;;7.72;;
45206;SDS011;30950;53.086;21.576;2022-09-09T05:21:47;13.65;;;8.30;;
45206;SDS011;30950;53.086;21.576;2022-09-09T05:24:18;12.70;;;8.02;;
45206;SDS011;30950;53.086;21.576;2022-09-09T05:26:48;13.82;;;8.48;;
45206;SDS011;30950;53.086;21.576;2022-09-09T05:29:16;14.25;;;8.23;;
45206;SDS011;30950;53.086;21.576;2022-09-09T05:31:45;11.15;;;8.25;;
45206;SDS011;30950;53.086;21.576;2022-09-09T05:34:17;16.70;;;9.73;;
45206;SDS011;30950;53.086;21.576;2022-09-09T05:36:45;12.43;;;8.93;;
45206;SDS011;30950;53.086;21.576;2022-09-09T05:39:14;17.45;;;9.93;;
45206;SDS011;30950;53.086;21.576;2022-09-09T05:41:41;16.02;;;10.57;;
45206;SDS011;30950;53.086;21.576;2022-09-09T05:44:09;17.80;;;10.52;;
45206;SDS011;30950;53.086;21.576;2022-09-09T05:46:38;20.00;;;10.63;;
45206;SDS011;30950;53.086;21.576;2022-09-09T05:49:06;13.27;;;10.02;;
45206;SDS011;30950;53.086;21.576;2022-09-09T05:51:35;17.20;;;10.30;;
45206;SDS011;30950;53.086;21.576;2022-09-09T05:54:08;17.42;;;11.00;;
45206;SDS011;30950;53.086;21.576;2022-09-09T05:56:40;16.13;;;11.35;;
45206;SDS011;30950;53.086;21.576;2022-09-09T05:59:09;14.88;;;11.15;;
45206;SDS011;30950;53.086;21.576;2022-09-09T06:01:37;15.02;;;10.95;;
45206;SDS011;30950;53.086;21.576;2022-09-09T06:04:10;17.60;;;12.10;;
45206;SDS011;30950;53.086;21.576;2022-09-09T06:06:39;21.17;;;12.75;;
45206;SDS011;30950;53.086;21.576;2022-09-09T06:11:43;17.52;;;12.40;;
45206;SDS011;30950;53.086;21.576;2022-09-09T06:14:11;16.88;;;11.82;;
45206;SDS011;30950;53.086;21.576;2022-09-09T06:16:39;18.25;;;11.30;;
45206;SDS011;30950;53.086;21.576;2022-09-09T06:19:16;17.77;;;12.30;;
45206;SDS011;30950;53.086;21.576;2022-09-09T06:21:43;17.85;;;12.10;;
45206;SDS011;30950;53.086;21.576;2022-09-09T06:24:12;18.88;;;13.02;;
45206;SDS011;30950;53.086;21.576;2022-09-09T06:26:41;16.90;;;11.07;;
45206;SDS011;30950;53.086;21.576;2022-09-09T06:29:11;16.80;;;12.30;;
45206;SDS011;30950;53.086;21.576;2022-09-09T06:31:41;15.55;;;11.52;;
45206;SDS011;30950;53.086;21.576;2022-09-09T06:34:28;18.17;;;12.68;;
45206;SDS011;30950;53.086;21.576;2022-09-09T06:36:58;21.42;;;11.90;;
45206;SDS011;30950;53.086;21.576;2022-09-09T06:39:31;15.35;;;11.57;;
45206;SDS011;30950;53.086;21.576;2022-09-09T06:41:59;15.40;;;11.13;;
45206;SDS011;30950;53.086;21.576;2022-09-09T06:44:56;15.38;;;11.10;;
45206;SDS011;30950;53.086;21.576;2022-09-09T06:47:32;18.90;;;11.80;;
45206;SDS011;30950;53.086;21.576;2022-09-09T06:50:01;14.88;;;10.95;;
45206;SDS011;30950;53.086;21.576;2022-09-09T06:52:32;15.70;;;11.43;;
45206;SDS011;30950;53.086;21.576;2022-09-09T06:55:01;17.92;;;10.70;;
45206;SDS011;30950;53.086;21.576;2022-09-09T06:57:30;18.55;;;14.18;;
45206;SDS011;30950;53.086;21.576;2022-09-09T07:00:08;18.88;;;13.13;;
45206;SDS011;30950;53.086;21.576;2022-09-09T07:02:36;15.70;;;12.18;;
45206;SDS011;30950;53.086;21.576;2022-09-09T07:05:07;15.23;;;11.40;;
45206;SDS011;30950;53.086;21.576;2022-09-09T07:07:36;14.52;;;12.00;;
45206;SDS011;30950;53.086;21.576;2022-09-09T07:10:04;15.63;;;12.48;;
45206;SDS011;30950;53.086;21.576;2022-09-09T07:12:33;15.98;;;11.15;;
45206;SDS011;30950;53.086;21.576;2022-09-09T07:15:01;17.52;;;11.85;;
45206;SDS011;30950;53.086;21.576;2022-09-09T07:17:29;16.02;;;11.05;;
45206;SDS011;30950;53.086;21.576;2022-09-09T07:19:58;18.45;;;12.13;;
45206;SDS011;30950;53.086;21.576;2022-09-09T07:22:27;17.20;;;11.40;;
45206;SDS011;30950;53.086;21.576;2022-09-09T07:24:56;16.73;;;11.40;;
45206;SDS011;30950;53.086;21.576;2022-09-09T07:27:24;14.38;;;10.55;;
45206;SDS011;30950;53.086;21.576;2022-09-09T07:29:52;18.70;;;12.07;;
45206;SDS011;30950;53.086;21.576;2022-09-09T07:32:21;15.50;;;10.95;;
45206;SDS011;30950;53.086;21.576;2022-09-09T07:34:48;16.15;;;12.65;;
45206;SDS011;30950;53.086;21.576;2022-09-09T07:37:16;15.60;;;11.50;;
45206;SDS011;30950;53.086;21.576;2022-09-09T07:39:46;15.63;;;11.60;;
45206;SDS011;30950;53.086;21.576;2022-09-09T07:42:16;13.23;;;10.10;;
45206;SDS011;30950;53.086;21.576;2022-09-09T07:44:44;16.83;;;11.48;;
45206;SDS011;30950;53.086;21.576;2022-09-09T07:47:14;16.88;;;11.25;;
45206;SDS011;30950;53.086;21.576;2022-09-09T07:49:46;15.82;;;10.48;;
45206;SDS011;30950;53.086;21.576;2022-09-09T07:52:21;14.65;;;9.95;;
45206;SDS011;30950;53.086;21.576;2022-09-09T07:54:53;13.40;;;11.18;;
45206;SDS011;30950;53.086;21.576;2022-09-09T07:57:20;13.07;;;9.73;;
45206;SDS011;30950;53.086;21.576;2022-09-09T07:59:49;12.63;;;9.88;;
45206;SDS011;30950;53.086;21.576;2022-09-09T08:02:17;11.93;;;9.65;;
45206;SDS011;30950;53.086;21.576;2022-09-09T08:04:45;11.93;;;9.45;;
45206;SDS011;30950;53.086;21.576;2022-09-09T08:07:14;12.50;;;9.23;;
45206;SDS011;30950;53.086;21.576;2022-09-09T08:09:49;12.55;;;9.32;;
45206;SDS011;30950;53.086;21.576;2022-09-09T08:12:21;13.18;;;9.43;;
45206;SDS011;30950;53.086;21.576;2022-09-09T08:14:48;11.80;;;9.23;;
45206;SDS011;30950;53.086;21.576;2022-09-09T08:17:17;13.85;;;9.45;;
45206;SDS011;30950;53.086;21.576;2022-09-09T08:19:45;14.15;;;10.05;;
45206;SDS011;30950;53.086;21.576;2022-09-09T08:22:18;12.98;;;9.38;;
45206;SDS011;30950;53.086;21.576;2022-09-09T08:24:45;16.42;;;10.23;;
45206;SDS011;30950;53.086;21.576;2022-09-09T08:27:13;13.35;;;9.20;;
45206;SDS011;30950;53.086;21.576;2022-09-09T08:29:41;12.50;;;9.63;;
45206;SDS011;30950;53.086;21.576;2022-09-09T08:32:08;14.93;;;9.95;;
45206;SDS011;30950;53.086;21.576;2022-09-09T08:34:37;12.45;;;10.00;;
45206;SDS011;30950;53.086;21.576;2022-09-09T08:37:11;11.98;;;9.82;;
45206;SDS011;30950;53.086;21.576;2022-09-09T08:39:40;11.45;;;8.23;;
45206;SDS011;30950;53.086;21.576;2022-09-09T08:42:23;10.27;;;9.07;;
45206;SDS011;30950;53.086;21.576;2022-09-09T08:45:17;12.25;;;8.80;;
45206;SDS011;30950;53.086;21.576;2022-09-09T08:50:24;12.75;;;9.05;;
45206;SDS011;30950;53.086;21.576;2022-09-09T09:09:36;16.87;;;9.17;;
45206;SDS011;30950;53.086;21.576;2022-09-09T09:12:15;10.65;;;8.70;;
45206;SDS011;30950;53.086;21.576;2022-09-09T09:14:48;10.75;;;9.50;;
45206;SDS011;30950;53.086;21.576;2022-09-09T09:17:20;11.63;;;8.73;;
45206;SDS011;30950;53.086;21.576;2022-09-09T09:19:50;11.93;;;9.40;;
45206;SDS011;30950;53.086;21.576;2022-09-09T09:25:12;10.27;;;9.20;;
45206;SDS011;30950;53.086;21.576;2022-09-09T09:33:30;12.13;;;9.23;;
45206;SDS011;30950;53.086;21.576;2022-09-09T09:36:09;13.27;;;10.50;;
45206;SDS011;30950;53.086;21.576;2022-09-09T09:38:57;11.82;;;9.70;;
45206;SDS011;30950;53.086;21.576;2022-09-09T09:41:47;9.85;;;7.03;;
45206;SDS011;30950;53.086;21.576;2022-09-09T09:44:28;10.63;;;8.32;;
45206;SDS011;30950;53.086;21.576;2022-09-09T09:47:13;10.48;;;8.13;;
45206;SDS011;30950;53.086;21.576;2022-09-09T09:52:28;9.43;;;8.43;;
45206;SDS011;30950;53.086;21.576;2022-09-09T09:54:58;9.55;;;7.60;;
45206;SDS011;30950;53.086;21.576;2022-09-09T09:57:33;10.07;;;7.90;;
45206;SDS011;30950;53.086;21.576;2022-09-09T10:00:13;9.60;;;7.32;;
45206;SDS011;30950;53.086;21.576;2022-09-09T10:02:53;11.32;;;7.90;;
45206;SDS011;30950;53.086;21.576;2022-09-09T10:05:28;10.60;;;6.95;;
45206;SDS011;30950;53.086;21.576;2022-09-09T10:16:30;9.35;;;6.90;;
45206;SDS011;30950;53.086;21.576;2022-09-09T10:19:04;8.43;;;6.70;;
45206;SDS011;30950;53.086;21.576;2022-09-09T10:24:54;7.45;;;6.60;;
45206;SDS011;30950;53.086;21.576;2022-09-09T10:27:45;7.85;;;6.70;;
45206;SDS011;30950;53.086;21.576;2022-09-09T10:30:48;6.90;;;5.82;;
45206;SDS011;30950;53.086;21.576;2022-09-09T10:36:23;8.40;;;6.78;;
45206;SDS011;30950;53.086;21.576;2022-09-09T10:39:06;9.70;;;7.65;;
45206;SDS011;30950;53.086;21.576;2022-09-09T10:42:09;8.27;;;6.30;;
45206;SDS011;30950;53.086;21.576;2022-09-09T10:44:53;8.60;;;6.47;;
45206;SDS011;30950;53.086;21.576;2022-09-09T10:47:38;9.88;;;6.68;;
45206;SDS011;30950;53.086;21.576;2022-09-09T10:53:41;8.45;;;6.55;;
45206;SDS011;30950;53.086;21.576;2022-09-09T10:56:21;10.00;;;6.70;;
45206;SDS011;30950;53.086;21.576;2022-09-09T10:58:58;8.82;;;6.60;;
45206;SDS011;30950;53.086;21.576;2022-09-09T11:04:40;8.15;;;6.30;;
45206;SDS011;30950;53.086;21.576;2022-09-09T11:07:20;7.38;;;6.00;;
45206;SDS011;30950;53.086;21.576;2022-09-09T11:10:14;7.93;;;5.55;;
45206;SDS011;30950;53.086;21.576;2022-09-09T11:13:11;9.57;;;5.28;;
45206;SDS011;30950;53.086;21.576;2022-09-09T11:15:48;10.95;;;7.18;;
45206;SDS011;30950;53.086;21.576;2022-09-09T11:18:21;9.80;;;8.80;;
45206;SDS011;30950;53.086;21.576;2022-09-09T11:20:58;8.48;;;6.93;;
45206;SDS011;30950;53.086;21.576;2022-09-09T11:23:38;7.70;;;6.47;;
45206;SDS011;30950;53.086;21.576;2022-09-09T11:26:10;7.40;;;5.82;;
45206;SDS011;30950;53.086;21.576;2022-09-09T11:34:16;8.73;;;7.50;;
45206;SDS011;30950;53.086;21.576;2022-09-09T11:44:41;7.82;;;5.90;;
45206;SDS011;30950;53.086;21.576;2022-09-09T11:47:20;7.05;;;5.75;;
45206;SDS011;30950;53.086;21.576;2022-09-09T11:52:42;7.00;;;5.72;;
45206;SDS011;30950;53.086;21.576;2022-09-09T11:57:57;8.38;;;6.63;;
45206;SDS011;30950;53.086;21.576;2022-09-09T12:00:39;9.02;;;6.65;;
45206;SDS011;30950;53.086;21.576;2022-09-09T12:06:28;8.30;;;6.32;;
45206;SDS011;30950;53.086;21.576;2022-09-09T12:09:06;9.02;;;7.07;;
45206;SDS011;30950;53.086;21.576;2022-09-09T12:11:42;8.38;;;7.18;;
45206;SDS011;30950;53.086;21.576;2022-09-09T12:14:19;11.52;;;7.50;;
45206;SDS011;30950;53.086;21.576;2022-09-09T12:19:41;10.10;;;7.47;;
45206;SDS011;30950;53.086;21.576;2022-09-09T12:25:16;9.63;;;7.50;;
45206;SDS011;30950;53.086;21.576;2022-09-09T12:34:04;10.15;;;7.70;;
45206;SDS011;30950;53.086;21.576;2022-09-09T12:36:41;8.90;;;7.90;;
45206;SDS011;30950;53.086;21.576;2022-09-09T12:39:25;9.65;;;7.32;;
45206;SDS011;30950;53.086;21.576;2022-09-09T12:42:04;9.88;;;7.43;;
45206;SDS011;30950;53.086;21.576;2022-09-09T12:44:31;11.18;;;8.77;;
45206;SDS011;30950;53.086;21.576;2022-09-09T12:47:00;9.10;;;7.63;;
45206;SDS011;30950;53.086;21.576;2022-09-09T12:49:31;10.82;;;7.50;;
45206;SDS011;30950;53.086;21.576;2022-09-09T12:52:11;11.82;;;7.55;;
45206;SDS011;30950;53.086;21.576;2022-09-09T12:55:01;9.85;;;7.72;;
45206;SDS011;30950;53.086;21.576;2022-09-09T12:57:35;11.68;;;7.78;;
45206;SDS011;30950;53.086;21.576;2022-09-09T13:00:06;9.90;;;8.85;;
45206;SDS011;30950;53.086;21.576;2022-09-09T13:02:48;9.43;;;7.67;;
45206;SDS011;30950;53.086;21.576;2022-09-09T13:05:28;10.32;;;7.53;;
45206;SDS011;30950;53.086;21.576;2022-09-09T13:08:09;12.75;;;8.55;;
45206;SDS011;30950;53.086;21.576;2022-09-09T13:10:43;8.40;;;7.10;;
45206;SDS011;30950;53.086;21.576;2022-09-09T13:13:36;9.25;;;7.38;;
45206;SDS011;30950;53.086;21.576;2022-09-09T13:16:06;10.02;;;7.57;;
45206;SDS011;30950;53.086;21.576;2022-09-09T13:18:50;11.13;;;7.88;;
45206;SDS011;30950;53.086;21.576;2022-09-09T13:21:17;10.88;;;7.97;;
45206;SDS011;30950;53.086;21.576;2022-09-09T13:23:49;9.85;;;7.90;;
45206;SDS011;30950;53.086;21.576;2022-09-09T13:28:52;10.93;;;8.52;;
45206;SDS011;30950;53.086;21.576;2022-09-09T13:31:22;9.82;;;7.65;;
45206;SDS011;30950;53.086;21.576;2022-09-09T13:33:52;9.10;;;7.55;;
45206;SDS011;30950;53.086;21.576;2022-09-09T13:36:33;11.13;;;7.35;;
45206;SDS011;30950;53.086;21.576;2022-09-09T13:39:02;9.40;;;7.15;;
45206;SDS011;30950;53.086;21.576;2022-09-09T13:41:41;10.65;;;7.88;;
45206;SDS011;30950;53.086;21.576;2022-09-09T13:44:17;13.20;;;9.73;;
45206;SDS011;30950;53.086;21.576;2022-09-09T13:47:00;10.90;;;9.18;;
45206;SDS011;30950;53.086;21.576;2022-09-09T13:49:43;10.32;;;7.88;;
45206;SDS011;30950;53.086;21.576;2022-09-09T13:52:13;8.55;;;7.60;;
45206;SDS011;30950;53.086;21.576;2022-09-09T13:54:47;10.63;;;8.05;;
45206;SDS011;30950;53.086;21.576;2022-09-09T13:57:19;10.55;;;7.65;;
45206;SDS011;30950;53.086;21.576;2022-09-09T13:59:52;14.15;;;8.32;;
45206;SDS011;30950;53.086;21.576;2022-09-09T14:02:37;11.90;;;8.90;;
45206;SDS011;30950;53.086;21.576;2022-09-09T14:05:05;10.38;;;8.45;;
45206;SDS011;30950;53.086;21.576;2022-09-09T14:07:33;9.57;;;7.80;;
45206;SDS011;30950;53.086;21.576;2022-09-09T14:10:00;10.57;;;8.93;;
45206;SDS011;30950;53.086;21.576;2022-09-09T14:12:27;12.60;;;8.82;;
45206;SDS011;30950;53.086;21.576;2022-09-09T14:14:55;11.80;;;9.07;;
45206;SDS011;30950;53.086;21.576;2022-09-09T14:17:22;9.95;;;8.43;;
45206;SDS011;30950;53.086;21.576;2022-09-09T14:19:51;12.48;;;8.77;;
45206;SDS011;30950;53.086;21.576;2022-09-09T14:22:19;12.43;;;9.27;;
45206;SDS011;30950;53.086;21.576;2022-09-09T14:24:46;9.00;;;7.30;;
45206;SDS011;30950;53.086;21.576;2022-09-09T14:27:13;9.95;;;7.57;;
45206;SDS011;30950;53.086;21.576;2022-09-09T14:29:41;10.52;;;7.53;;
45206;SDS011;30950;53.086;21.576;2022-09-09T14:32:11;11.20;;;8.15;;
45206;SDS011;30950;53.086;21.576;2022-09-09T14:34:38;9.95;;;7.85;;
45206;SDS011;30950;53.086;21.576;2022-09-09T14:37:05;9.95;;;7.45;;
45206;SDS011;30950;53.086;21.576;2022-09-09T14:39:33;9.38;;;7.00;;
45206;SDS011;30950;53.086;21.576;2022-09-09T14:42:00;9.15;;;7.32;;
45206;SDS011;30950;53.086;21.576;2022-09-09T14:44:28;11.07;;;7.72;;
45206;SDS011;30950;53.086;21.576;2022-09-09T14:46:56;9.57;;;7.22;;
45206;SDS011;30950;53.086;21.576;2022-09-09T14:49:23;10.27;;;7.15;;
45206;SDS011;30950;53.086;21.576;2022-09-09T14:51:50;8.95;;;7.68;;
45206;SDS011;30950;53.086;21.576;2022-09-09T14:54:18;9.55;;;7.18;;
45206;SDS011;30950;53.086;21.576;2022-09-09T14:56:45;8.52;;;6.63;;
45206;SDS011;30950;53.086;21.576;2022-09-09T14:59:14;9.23;;;7.13;;
45206;SDS011;30950;53.086;21.576;2022-09-09T15:01:41;10.23;;;6.82;;
45206;SDS011;30950;53.086;21.576;2022-09-09T15:04:10;10.38;;;6.07;;
45206;SDS011;30950;53.086;21.576;2022-09-09T15:06:39;9.75;;;7.43;;
45206;SDS011;30950;53.086;21.576;2022-09-09T15:09:09;13.38;;;8.02;;
45206;SDS011;30950;53.086;21.576;2022-09-09T15:11:37;10.18;;;7.05;;
45206;SDS011;30950;53.086;21.576;2022-09-09T15:14:05;10.77;;;7.15;;
45206;SDS011;30950;53.086;21.576;2022-09-09T15:16:33;11.90;;;7.55;;
45206;SDS011;30950;53.086;21.576;2022-09-09T15:19:02;9.23;;;6.70;;
45206;SDS011;30950;53.086;21.576;2022-09-09T15:21:30;9.18;;;7.07;;
45206;SDS011;30950;53.086;21.576;2022-09-09T15:24:00;9.30;;;7.70;;
45206;SDS011;30950;53.086;21.576;2022-09-09T15:26:27;8.93;;;7.32;;
45206;SDS011;30950;53.086;21.576;2022-09-09T15:28:56;9.88;;;7.28;;
45206;SDS011;30950;53.086;21.576;2022-09-09T15:31:29;10.05;;;7.18;;
45206;SDS011;30950;53.086;21.576;2022-09-09T15:34:02;9.32;;;7.30;;
45206;SDS011;30950;53.086;21.576;2022-09-09T15:36:35;9.98;;;7.32;;
45206;SDS011;30950;53.086;21.576;2022-09-09T15:39:05;10.25;;;7.85;;
45206;SDS011;30950;53.086;21.576;2022-09-09T15:41:35;9.95;;;7.60;;
45206;SDS011;30950;53.086;21.576;2022-09-09T15:44:02;10.10;;;8.25;;
45206;SDS011;30950;53.086;21.576;2022-09-09T15:46:30;9.00;;;7.13;;
45206;SDS011;30950;53.086;21.576;2022-09-09T15:49:13;10.40;;;7.57;;
45206;SDS011;30950;53.086;21.576;2022-09-09T15:51:41;9.20;;;7.50;;
45206;SDS011;30950;53.086;21.576;2022-09-09T15:54:12;9.57;;;8.05;;
45206;SDS011;30950;53.086;21.576;2022-09-09T15:56:45;10.63;;;8.00;;
45206;SDS011;30950;53.086;21.576;2022-09-09T15:59:15;9.48;;;7.93;;
45206;SDS011;30950;53.086;21.576;2022-09-09T16:01:43;8.90;;;6.88;;
45206;SDS011;30950;53.086;21.576;2022-09-09T16:04:10;9.40;;;8.18;;
45206;SDS011;30950;53.086;21.576;2022-09-09T16:06:38;9.75;;;7.38;;
45206;SDS011;30950;53.086;21.576;2022-09-09T16:09:06;9.35;;;7.47;;
45206;SDS011;30950;53.086;21.576;2022-09-09T16:11:36;10.50;;;8.00;;
45206;SDS011;30950;53.086;21.576;2022-09-09T16:14:04;13.77;;;8.05;;
45206;SDS011;30950;53.086;21.576;2022-09-09T16:16:33;8.82;;;7.38;;
45206;SDS011;30950;53.086;21.576;2022-09-09T16:19:03;12.52;;;8.48;;
45206;SDS011;30950;53.086;21.576;2022-09-09T16:21:34;11.38;;;8.63;;
45206;SDS011;30950;53.086;21.576;2022-09-09T16:24:06;10.07;;;7.63;;
45206;SDS011;30950;53.086;21.576;2022-09-09T16:26:36;10.38;;;8.10;;
45206;SDS011;30950;53.086;21.576;2022-09-09T16:29:05;12.38;;;8.80;;
45206;SDS011;30950;53.086;21.576;2022-09-09T16:31:32;8.60;;;7.78;;
45206;SDS011;30950;53.086;21.576;2022-09-09T16:34:00;11.18;;;8.80;;
45206;SDS011;30950;53.086;21.576;2022-09-09T16:36:30;9.90;;;8.65;;
45206;SDS011;30950;53.086;21.576;2022-09-09T16:39:02;10.02;;;8.02;;
45206;SDS011;30950;53.086;21.576;2022-09-09T16:41:33;9.77;;;7.95;;
45206;SDS011;30950;53.086;21.576;2022-09-09T16:44:02;10.85;;;8.07;;
45206;SDS011;30950;53.086;21.576;2022-09-09T16:46:33;10.70;;;8.82;;
45206;SDS011;30950;53.086;21.576;2022-09-09T16:49:03;9.80;;;7.65;;
45206;SDS011;30950;53.086;21.576;2022-09-09T16:51:42;12.07;;;8.27;;
45206;SDS011;30950;53.086;21.576;2022-09-09T16:54:14;9.25;;;8.30;;
45206;SDS011;30950;53.086;21.576;2022-09-09T16:56:44;9.38;;;7.45;;
45206;SDS011;30950;53.086;21.576;2022-09-09T16:59:13;9.48;;;7.90;;
45206;SDS011;30950;53.086;21.576;2022-09-09T17:01:43;11.00;;;8.00;;
45206;SDS011;30950;53.086;21.576;2022-09-09T17:04:13;10.68;;;7.78;;
45206;SDS011;30950;53.086;21.576;2022-09-09T17:06:51;10.95;;;8.88;;
45206;SDS011;30950;53.086;21.576;2022-09-09T17:09:19;10.23;;;8.90;;
45206;SDS011;30950;53.086;21.576;2022-09-09T17:11:49;12.20;;;8.68;;
45206;SDS011;30950;53.086;21.576;2022-09-09T17:14:19;9.90;;;8.57;;
45206;SDS011;30950;53.086;21.576;2022-09-09T17:16:47;9.80;;;8.30;;
45206;SDS011;30950;53.086;21.576;2022-09-09T17:19:15;10.30;;;8.25;;
45206;SDS011;30950;53.086;21.576;2022-09-09T17:21:43;11.60;;;7.95;;